Time;durP1;ratioP1;P1;durP2;ratioP2;P2;SDS_P1;SDS_P2;PMS_P1;PMS_P2;Temp;Humidity;BMP_temperature;BMP_pressure;BME280_temperature;BME280_humidity;BME280_pressure;Samples;Min_cycle;Max_cycle;Signal;HPM_P1;HPM_P2
2022/12/27 00:00:49;;;;;;;33.00;18.92;;;7.90;99.90;;;;;;4909090;29;20055;-73
2022/12/27 00:03:15;;;;;;;33.42;20.05;;;8.00;99.90;;;;;;4908181;29;20043;-73
2022/12/27 00:05:45;;;;;;;40.53;20.25;;;8.10;99.90;;;;;;4910803;29;20095;-72
2022/12/27 00:08:11;;;;;;;28.65;18.13;;;8.00;99.90;;;;;;4913386;29;20048;-72
2022/12/27 00:10:37;;;;;;;30.08;18.13;;;7.90;99.90;;;;;;4915292;29;20055;-73
2022/12/27 00:13:02;;;;;;;29.63;17.88;;;7.80;99.90;;;;;;4908563;29;20036;-73
2022/12/27 00:15:28;;;;;;;31.38;18.30;;;7.90;99.90;;;;;;4908041;29;20051;-73
2022/12/27 00:17:54;;;;;;;31.13;17.95;;;7.90;99.90;;;;;;4907288;29;20043;-71
2022/12/27 00:20:20;;;;;;;30.95;18.25;;;8.00;99.90;;;;;;4912589;29;20087;-72
2022/12/27 00:22:46;;;;;;;31.23;17.95;;;7.80;99.90;;;;;;4909484;29;20932;-72
2022/12/27 00:25:11;;;;;;;34.88;19.55;;;7.80;99.90;;;;;;4913440;29;20039;-74
2022/12/27 00:27:37;;;;;;;32.42;18.27;;;7.80;99.90;;;;;;4915286;29;20485;-70
2022/12/27 00:30:04;;;;;;;29.05;18.30;;;7.70;99.90;;;;;;4913112;29;20039;-72
2022/12/27 00:32:29;;;;;;;28.35;18.48;;;7.80;99.90;;;;;;4911772;29;20103;-71
2022/12/27 00:34:55;;;;;;;25.48;16.15;;;7.90;99.90;;;;;;4912468;29;20036;-72
2022/12/27 00:37:21;;;;;;;29.20;18.38;;;7.90;99.90;;;;;;4911202;29;20383;-71
2022/12/27 00:39:46;;;;;;;22.35;15.32;;;8.10;99.90;;;;;;4915552;29;20059;-71
2022/12/27 00:42:12;;;;;;;23.52;15.45;;;8.20;99.90;;;;;;4904481;29;21777;-71
2022/12/27 00:44:38;;;;;;;23.02;14.35;;;8.30;99.90;;;;;;4905654;29;20040;-71
2022/12/27 00:47:03;;;;;;;15.43;10.50;;;8.30;99.90;;;;;;4909501;29;20413;-71
2022/12/27 00:49:29;;;;;;;14.02;9.48;;;8.30;99.90;;;;;;4910316;29;20048;-70
2022/12/27 00:51:55;;;;;;;10.52;6.68;;;8.50;99.90;;;;;;4910566;29;20176;-73
2022/12/27 00:54:20;;;;;;;9.25;6.50;;;8.60;99.90;;;;;;4911269;29;20031;-73
2022/12/27 00:56:46;;;;;;;7.50;5.97;;;8.70;99.90;;;;;;4918056;29;20900;-73
2022/12/27 00:59:12;;;;;;;7.78;4.57;;;8.90;99.90;;;;;;4908410;29;20150;-72
2022/12/27 01:01:38;;;;;;;7.57;5.90;;;9.00;99.90;;;;;;4907269;29;20047;-73
2022/12/27 01:04:05;;;;;;;6.00;4.65;;;9.10;99.90;;;;;;4906282;29;20052;-72
2022/12/27 01:06:33;;;;;;;4.57;3.95;;;9.20;99.90;;;;;;4908203;29;20048;-72
2022/12/27 01:09:00;;;;;;;3.53;2.72;;;9.20;99.90;;;;;;4906051;29;20051;-73
2022/12/27 01:11:28;;;;;;;1.80;1.60;;;9.30;99.90;;;;;;4896697;29;20042;-72
2022/12/27 01:13:56;;;;;;;2.95;2.15;;;9.40;99.90;;;;;;4902896;29;20167;-70
2022/12/27 01:16:23;;;;;;;4.72;2.58;;;9.50;99.90;;;;;;4905605;29;20044;-71
2022/12/27 01:18:49;;;;;;;2.17;1.95;;;9.60;99.90;;;;;;4909209;29;20147;-70
2022/12/27 01:21:19;;;;;;;1.95;1.23;;;9.60;99.90;;;;;;4909889;29;20036;-71
2022/12/27 01:23:44;;;;;;;0.90;0.73;;;9.70;99.90;;;;;;4914884;29;20036;-71
2022/12/27 01:26:16;;;;;;;0.52;0.32;;;9.80;99.90;;;;;;4913786;29;20039;-71
2022/12/27 01:28:43;;;;;;;0.38;0.30;;;10.00;99.90;;;;;;4908048;29;20051;-70
2022/12/27 01:31:16;;;;;;;0.32;0.32;;;10.20;99.90;;;;;;4911953;29;20040;-70
2022/12/27 01:33:42;;;;;;;0.30;0.30;;;10.30;99.90;;;;;;4914921;29;20055;-70
2022/12/27 01:36:17;;;;;;;0.20;0.20;;;10.40;99.90;;;;;;4907484;29;20097;-71
2022/12/27 01:38:44;;;;;;;0.20;0.20;;;10.40;99.90;;;;;;4913662;29;20099;-71
2022/12/27 01:44:48;;;;;;;0.20;0.10;;;10.70;99.90;;;;;;4905835;29;20173;-70
2022/12/27 01:47:22;;;;;;;0.50;0.32;;;10.90;99.90;;;;;;4895148;29;20139;-70
2022/12/27 01:50:03;;;;;;;0.43;0.28;;;10.90;99.90;;;;;;4913101;29;20057;-70
2022/12/27 01:52:47;;;;;;;0.20;0.20;;;10.90;99.90;;;;;;4912279;29;20057;-70
2022/12/27 01:55:42;;;;;;;0.30;0.17;;;11.00;99.90;;;;;;4912013;29;20051;-70
2022/12/27 01:58:10;;;;;;;0.93;0.40;;;11.00;99.90;;;;;;4908591;29;20099;-70
2022/12/27 02:00:39;;;;;;;0.30;0.10;;;11.10;99.90;;;;;;4902129;29;20055;-71
2022/12/27 02:03:06;;;;;;;0.32;0.20;;;11.20;99.90;;;;;;4904350;29;20044;-70
2022/12/27 02:05:32;;;;;;;0.13;0.10;;;11.20;99.90;;;;;;4902774;29;20054;-74
2022/12/27 02:08:17;;;;;;;1.45;0.10;;;11.30;99.90;;;;;;4895235;29;20584;-76
2022/12/27 02:10:43;;;;;;;0.65;0.22;;;11.30;99.90;;;;;;4905805;29;20090;-74
2022/12/27 02:13:09;;;;;;;0.30;0.25;;;11.50;99.90;;;;;;4905853;29;20761;-74
2022/12/27 02:15:34;;;;;;;0.30;0.10;;;11.50;99.90;;;;;;4901669;29;20042;-77
2022/12/27 02:18:00;;;;;;;0.20;0.10;;;11.50;99.90;;;;;;4907666;29;20505;-77
2022/12/27 02:20:31;;;;;;;0.38;0.20;;;11.60;99.90;;;;;;4903302;29;20036;-74
2022/12/27 02:26:23;;;;;;;0.10;0.10;;;11.60;99.90;;;;;;4907297;29;20602;-75
2022/12/27 02:28:57;;;;;;;0.75;0.10;;;11.60;99.90;;;;;;4905710;29;20043;-75
2022/12/27 02:31:23;;;;;;;0.20;0.05;;;11.60;99.90;;;;;;4908035;29;20485;-77
2022/12/27 02:33:50;;;;;;;0.05;0.00;;;11.70;99.90;;;;;;4903282;29;20039;-75
2022/12/27 02:36:26;;;;;;;0.10;0.00;;;11.70;99.90;;;;;;4907125;29;20032;-73
2022/12/27 02:38:56;;;;;;;0.00;0.00;;;11.70;99.90;;;;;;4903569;29;20059;-75
2022/12/27 02:59:18;;;;;;;0.10;0.10;;;11.50;99.90;;;;;;4903569;29;20073;-74
2022/12/27 03:04:58;;;;;;;0.25;0.22;;;11.50;99.90;;;;;;4908976;29;20154;-75
2022/12/27 03:07:50;;;;;;;0.10;0.10;;;11.40;99.90;;;;;;4908908;29;20039;-74
2022/12/27 03:16:40;;;;;;;0.30;0.20;;;11.40;99.90;;;;;;4908113;29;20050;-71
2022/12/27 03:25:26;;;;;;;0.17;0.17;;;11.50;99.90;;;;;;4909322;29;20404;-74
2022/12/27 03:27:41;;;;;;;0.28;0.20;;;11.40;99.90;;;;;;4910603;29;20409;-73
2022/12/27 03:33:13;;;;;;;0.30;0.30;;;11.30;99.90;;;;;;4906007;29;20047;-70
2022/12/27 03:38:58;;;;;;;0.70;0.55;;;11.30;99.90;;;;;;4916353;29;20262;-73
2022/12/27 03:44:23;;;;;;;0.40;0.30;;;11.30;99.90;;;;;;4892904;29;20110;-74
2022/12/27 03:46:56;;;;;;;0.47;0.40;;;11.30;99.90;;;;;;4912143;29;20650;-72
2022/12/27 03:49:33;;;;;;;0.85;0.50;;;11.20;99.90;;;;;;4910853;29;20120;-78
2022/12/27 03:52:20;;;;;;;1.35;0.80;;;11.10;99.90;;;;;;4916099;29;20696;-74
2022/12/27 03:54:48;;;;;;;0.85;0.80;;;11.00;99.90;;;;;;4914760;29;20155;-78
2022/12/27 03:57:25;;;;;;;0.95;0.90;;;10.90;99.90;;;;;;4918214;29;20035;-77
2022/12/27 03:59:51;;;;;;;1.15;1.00;;;10.90;99.90;;;;;;4915705;29;20046;-76
2022/12/27 04:02:17;;;;;;;1.58;1.23;;;10.80;99.90;;;;;;4918733;29;20053;-78
2022/12/27 04:04:43;;;;;;;1.90;1.42;;;10.70;99.90;;;;;;4921733;29;20481;-73
2022/12/27 04:07:12;;;;;;;2.72;1.67;;;10.70;99.90;;;;;;4918365;29;20046;-75
2022/12/27 04:37:00;;;;;;;2.35;1.90;;;10.50;99.90;;;;;;4907718;29;20054;-76
2022/12/27 04:39:26;;;;;;;2.03;1.67;;;10.50;99.90;;;;;;4911324;29;20111;-79
2022/12/27 04:55:59;;;;;;;2.13;1.85;;;10.40;99.90;;;;;;4909909;29;20107;-76
2022/12/27 04:58:25;;;;;;;2.13;2.00;;;10.30;99.90;;;;;;4911449;29;20043;-74
2022/12/27 05:03:37;;;;;;;2.47;2.17;;;10.20;99.90;;;;;;4911868;29;20106;-71
2022/12/27 05:06:03;;;;;;;2.30;1.80;;;10.20;99.90;;;;;;4912538;29;20095;-70
2022/12/27 05:13:59;;;;;;;2.13;1.67;;;10.30;99.90;;;;;;4914207;29;20058;-71
2022/12/27 05:16:30;;;;;;;1.65;1.50;;;10.20;99.90;;;;;;4915477;29;20078;-71
2022/12/27 05:18:56;;;;;;;2.17;1.30;;;10.20;99.90;;;;;;4910756;29;20913;-71
2022/12/27 05:21:22;;;;;;;2.80;1.65;;;10.10;99.90;;;;;;4910460;29;20083;-70
2022/12/27 05:26:33;;;;;;;2.92;1.20;;;10.10;99.90;;;;;;4914610;29;20132;-71
2022/12/27 05:28:59;;;;;;;1.75;1.60;;;10.10;99.90;;;;;;4912216;29;20131;-71
2022/12/27 05:31:26;;;;;;;1.48;1.38;;;10.10;99.90;;;;;;4911633;29;20126;-71
2022/12/27 05:33:52;;;;;;;2.95;1.35;;;10.10;99.90;;;;;;4909911;29;20039;-71
2022/12/27 05:36:19;;;;;;;2.33;1.50;;;10.10;99.90;;;;;;4913332;29;20040;-71
2022/12/27 05:38:44;;;;;;;1.77;1.42;;;10.10;99.90;;;;;;4914248;29;21805;-70
2022/12/27 05:41:11;;;;;;;1.45;1.33;;;10.10;99.90;;;;;;4909158;29;20044;-71
2022/12/27 05:43:36;;;;;;;3.22;1.30;;;10.00;99.90;;;;;;4892746;29;20505;-70
2022/12/27 05:46:07;;;;;;;1.48;1.10;;;10.00;99.90;;;;;;4911959;29;20040;-70
2022/12/27 05:48:33;;;;;;;0.80;0.80;;;9.90;99.90;;;;;;4911991;29;20080;-71
2022/12/27 05:51:04;;;;;;;0.98;0.80;;;10.00;99.90;;;;;;4908360;29;20048;-71
2022/12/27 05:53:29;;;;;;;1.85;1.70;;;10.10;99.90;;;;;;4911123;29;20154;-71
2022/12/27 05:55:56;;;;;;;1.00;0.90;;;10.10;99.90;;;;;;4911771;29;20098;-76
2022/12/27 05:58:22;;;;;;;2.17;0.93;;;10.10;99.90;;;;;;4910361;29;20035;-76
2022/12/27 06:00:48;;;;;;;0.60;0.60;;;10.10;99.90;;;;;;4912338;29;20050;-76
2022/12/27 06:03:13;;;;;;;0.63;0.63;;;10.20;99.90;;;;;;4910948;29;20051;-76
2022/12/27 06:05:39;;;;;;;0.95;0.55;;;10.10;99.90;;;;;;4910635;29;20047;-75
2022/12/27 06:08:05;;;;;;;0.40;0.40;;;10.10;99.90;;;;;;4911873;29;20035;-76
2022/12/27 06:10:30;;;;;;;0.70;0.60;;;10.10;99.90;;;;;;4910649;29;20409;-75
2022/12/27 06:12:59;;;;;;;0.57;0.50;;;10.20;99.90;;;;;;4906655;29;20054;-74
2022/12/27 06:15:25;;;;;;;0.40;0.40;;;10.20;99.90;;;;;;4911267;29;20039;-78
2022/12/27 06:17:50;;;;;;;0.55;0.40;;;10.10;99.90;;;;;;4910039;29;20036;-71
2022/12/27 06:20:16;;;;;;;0.30;0.30;;;10.10;99.90;;;;;;4913392;29;21985;-71
2022/12/27 06:22:42;;;;;;;1.00;0.60;;;10.10;99.90;;;;;;4909967;29;20239;-70
2022/12/27 06:25:08;;;;;;;0.63;0.55;;;10.10;99.90;;;;;;4904532;29;20047;-70
2022/12/27 06:27:34;;;;;;;1.10;0.52;;;10.10;99.90;;;;;;4909153;29;20043;-71
2022/12/27 06:30:00;;;;;;;0.63;0.57;;;10.00;99.90;;;;;;4909950;29;20047;-71
2022/12/27 06:32:25;;;;;;;0.82;0.60;;;10.10;99.90;;;;;;4906962;29;20131;-71
2022/12/27 06:34:51;;;;;;;0.50;0.50;;;10.10;99.90;;;;;;4915490;29;20489;-75
2022/12/27 06:37:17;;;;;;;0.60;0.60;;;9.90;99.90;;;;;;4915777;29;20571;-75
2022/12/27 06:39:43;;;;;;;1.35;0.35;;;9.90;99.90;;;;;;4910775;29;20124;-74
2022/12/27 06:42:09;;;;;;;0.70;0.60;;;9.90;99.90;;;;;;4908207;29;20063;-75
2022/12/27 06:44:35;;;;;;;0.50;0.50;;;9.90;99.90;;;;;;4910541;29;20047;-74
2022/12/27 06:47:01;;;;;;;1.02;0.73;;;9.90;99.90;;;;;;4911707;29;20142;-73
2022/12/27 06:49:27;;;;;;;0.65;0.57;;;9.80;99.90;;;;;;4906641;29;20044;-74
2022/12/27 06:51:52;;;;;;;0.85;0.70;;;9.80;99.90;;;;;;4909009;29;20159;-74
2022/12/27 06:54:18;;;;;;;0.47;0.47;;;9.80;99.90;;;;;;4908541;29;20500;-76
2022/12/27 06:56:44;;;;;;;0.50;0.50;;;9.80;99.90;;;;;;4913988;29;20281;-74
2022/12/27 06:59:09;;;;;;;0.75;0.60;;;9.70;99.90;;;;;;4908891;29;20039;-76
2022/12/27 07:01:35;;;;;;;1.75;0.45;;;9.80;99.90;;;;;;4910485;29;20126;-75
2022/12/27 07:04:01;;;;;;;0.50;0.50;;;9.80;99.90;;;;;;4908824;29;20043;-74
2022/12/27 07:06:28;;;;;;;0.45;0.45;;;9.80;99.90;;;;;;4909904;29;20091;-74
2022/12/27 07:08:55;;;;;;;0.60;0.40;;;9.80;99.90;;;;;;4906924;29;20054;-75
2022/12/27 07:11:22;;;;;;;0.40;0.40;;;9.80;99.90;;;;;;4911113;29;20095;-70
2022/12/27 07:13:50;;;;;;;0.68;0.47;;;9.90;99.90;;;;;;4910497;29;20784;-71
2022/12/27 07:16:18;;;;;;;0.30;0.30;;;9.90;99.90;;;;;;4909200;29;20489;-70
2022/12/27 07:18:44;;;;;;;0.40;0.40;;;9.90;99.90;;;;;;4907595;29;20050;-71
2022/12/27 07:21:18;;;;;;;0.68;0.55;;;9.80;99.90;;;;;;4906910;29;20048;-70
2022/12/27 07:23:44;;;;;;;1.08;0.50;;;9.80;99.90;;;;;;4910525;29;20043;-71
2022/12/27 07:26:29;;;;;;;1.02;0.40;;;9.80;99.90;;;;;;4913708;29;20071;-75
2022/12/27 07:29:00;;;;;;;0.40;0.30;;;9.70;99.90;;;;;;4907652;29;20067;-71
2022/12/27 07:31:28;;;;;;;0.45;0.40;;;9.70;99.90;;;;;;4901577;29;20063;-74
2022/12/27 07:33:55;;;;;;;0.30;0.20;;;9.80;99.90;;;;;;4910497;29;20091;-74
2022/12/27 07:36:24;;;;;;;0.22;0.20;;;9.70;99.90;;;;;;4907909;29;20043;-74
2022/12/27 07:38:50;;;;;;;1.30;0.40;;;9.80;99.90;;;;;;4905010;29;20040;-77
2022/12/27 07:41:16;;;;;;;0.60;0.57;;;9.70;99.90;;;;;;4913675;29;20047;-74
2022/12/27 07:43:43;;;;;;;0.47;0.30;;;9.60;99.90;;;;;;4905097;29;20081;-75
2022/12/27 07:46:10;;;;;;;0.38;0.38;;;9.50;99.90;;;;;;4889427;29;20044;-73
2022/12/27 07:48:36;;;;;;;1.05;0.30;;;9.40;99.90;;;;;;4909379;29;20099;-75
2022/12/27 07:51:03;;;;;;;1.00;0.30;;;9.30;99.90;;;;;;4913020;29;20036;-74
2022/12/27 07:53:29;;;;;;;0.20;0.20;;;9.30;99.90;;;;;;4919751;29;20036;-73
2022/12/27 07:55:55;;;;;;;0.57;0.40;;;9.20;99.90;;;;;;4912637;29;20048;-73
2022/12/27 07:58:21;;;;;;;0.15;0.15;;;9.10;99.90;;;;;;4907963;29;20048;-74
2022/12/27 08:00:49;;;;;;;0.20;0.20;;;9.10;99.90;;;;;;4900775;29;20111;-74
2022/12/27 08:03:15;;;;;;;0.20;0.20;;;9.00;99.90;;;;;;4900613;29;20043;-79
2022/12/27 08:05:48;;;;;;;0.77;0.30;;;9.00;99.90;;;;;;4904711;29;20048;-73
2022/12/27 08:08:16;;;;;;;0.38;0.20;;;9.00;99.90;;;;;;4910231;29;20138;-74
2022/12/27 08:10:42;;;;;;;0.68;0.20;;;9.10;99.90;;;;;;4906885;29;20032;-74
2022/12/27 08:13:08;;;;;;;0.98;0.30;;;9.00;99.90;;;;;;4908832;29;20040;-74
2022/12/27 08:15:36;;;;;;;1.85;0.20;;;8.90;99.90;;;;;;4904733;29;20031;-74
2022/12/27 08:18:02;;;;;;;0.20;0.20;;;9.00;99.90;;;;;;4902277;29;20147;-76
2022/12/27 08:20:27;;;;;;;0.20;0.17;;;8.90;99.90;;;;;;4902626;28;20040;-78
2022/12/27 08:22:53;;;;;;;0.32;0.10;;;8.80;99.90;;;;;;4910148;29;20039;-77
2022/12/27 08:25:18;;;;;;;0.10;0.10;;;8.70;99.90;;;;;;4912488;29;20255;-76
2022/12/27 08:27:44;;;;;;;0.20;0.10;;;8.70;99.90;;;;;;4908934;29;20031;-75
2022/12/27 08:30:10;;;;;;;4.05;2.15;;;8.60;99.90;;;;;;4915854;29;20055;-75
2022/12/27 08:32:36;;;;;;;0.68;0.30;;;8.50;99.90;;;;;;4919359;29;20039;-77
2022/12/27 08:35:01;;;;;;;0.13;0.10;;;8.50;99.90;;;;;;4922803;29;20067;-79
2022/12/27 08:37:27;;;;;;;0.30;0.20;;;8.40;99.90;;;;;;4915212;29;20036;-73
2022/12/27 08:39:52;;;;;;;0.10;0.10;;;8.30;99.90;;;;;;4921671;29;20048;-76
2022/12/27 08:42:18;;;;;;;0.10;0.10;;;8.30;99.90;;;;;;4914066;29;20063;-75
2022/12/27 08:44:44;;;;;;;0.22;0.10;;;8.40;99.90;;;;;;4919201;29;20119;-76
2022/12/27 08:47:09;;;;;;;0.28;0.28;;;8.40;99.90;;;;;;4915594;29;20135;-72
2022/12/27 08:49:35;;;;;;;0.20;0.20;;;8.40;99.90;;;;;;4902182;29;20107;-72
2022/12/27 08:52:00;;;;;;;0.52;0.28;;;8.50;99.90;;;;;;4907774;29;20099;-72
2022/12/27 08:54:26;;;;;;;0.17;0.17;;;8.60;99.90;;;;;;4914468;29;20023;-71
2022/12/27 08:56:52;;;;;;;0.70;0.22;;;8.60;99.90;;;;;;4918122;29;20131;-72
2022/12/27 08:59:17;;;;;;;0.52;0.15;;;8.60;99.90;;;;;;4917445;29;20035;-72
2022/12/27 09:01:43;;;;;;;0.20;0.20;;;8.50;99.90;;;;;;4915522;29;20063;-72
2022/12/27 09:04:09;;;;;;;0.15;0.15;;;8.50;99.90;;;;;;4922044;29;20038;-71
2022/12/27 09:06:34;;;;;;;0.40;0.17;;;8.40;99.90;;;;;;4922468;29;20043;-77
2022/12/27 09:09:00;;;;;;;0.10;0.10;;;8.40;99.90;;;;;;4917991;29;20123;-77
2022/12/27 09:11:27;;;;;;;1.60;1.50;;;8.40;99.90;;;;;;4917411;29;20107;-76
2022/12/27 09:13:53;;;;;;;0.85;0.28;;;8.40;99.90;;;;;;4914354;29;20896;-76
2022/12/27 09:16:26;;;;;;;0.10;0.10;;;8.40;99.90;;;;;;4911311;29;20505;-77
2022/12/27 09:18:53;;;;;;;0.25;0.15;;;8.40;99.90;;;;;;4914249;29;20039;-79
2022/12/27 09:21:21;;;;;;;0.30;0.10;;;8.40;99.90;;;;;;4918261;29;20048;-76
2022/12/27 09:23:48;;;;;;;0.28;0.28;;;8.30;99.90;;;;;;4915426;29;20036;-71
2022/12/27 09:26:20;;;;;;;0.95;0.30;;;8.20;99.90;;;;;;4931917;29;20386;-70
2022/12/27 09:28:46;;;;;;;0.50;0.50;;;8.10;99.90;;;;;;4909357;29;20814;-71
2022/12/27 09:31:13;;;;;;;1.02;0.40;;;8.00;99.90;;;;;;4923960;29;20114;-70
2022/12/27 09:33:39;;;;;;;1.27;0.15;;;8.00;99.90;;;;;;4926927;29;20036;-70
2022/12/27 09:36:11;;;;;;;0.40;0.30;;;8.00;99.90;;;;;;4915979;29;20489;-70
2022/12/27 09:38:37;;;;;;;0.50;0.30;;;7.90;99.90;;;;;;4916169;29;20403;-71
2022/12/27 09:41:12;;;;;;;0.65;0.20;;;7.90;99.90;;;;;;4921977;29;20931;-71
2022/12/27 09:43:43;;;;;;;0.30;0.30;;;8.00;99.90;;;;;;4915958;29;20040;-75
2022/12/27 09:46:35;;;;;;;0.35;0.30;;;8.00;99.90;;;;;;4923711;29;20052;-78
2022/12/27 09:49:02;;;;;;;1.65;0.38;;;8.00;99.90;;;;;;4921051;29;20114;-75
2022/12/27 09:51:39;;;;;;;0.20;0.20;;;8.00;99.90;;;;;;4908570;29;20036;-74
2022/12/27 09:54:15;;;;;;;0.95;0.30;;;8.10;99.90;;;;;;4917297;29;20123;-75
2022/12/27 09:56:40;;;;;;;0.32;0.30;;;8.20;99.90;;;;;;4915858;29;20040;-75
2022/12/27 09:59:12;;;;;;;0.30;0.20;;;8.20;99.90;;;;;;4913456;29;20060;-77
2022/12/27 10:01:43;;;;;;;0.50;0.30;;;8.20;99.90;;;;;;4912415;29;20416;-77
2022/12/27 10:04:12;;;;;;;0.30;0.30;;;8.20;99.90;;;;;;4917181;29;20048;-75
2022/12/27 10:06:48;;;;;;;1.05;0.35;;;8.10;99.90;;;;;;4915541;29;20110;-75
2022/12/27 10:09:41;;;;;;;1.27;0.30;;;8.10;99.90;;;;;;4913280;29;20275;-78
2022/12/27 10:12:32;;;;;;;0.50;0.35;;;8.10;99.90;;;;;;4917542;29;20515;-76
2022/12/27 10:15:21;;;;;;;3.33;0.40;;;8.00;99.90;;;;;;4914553;29;20048;-70
2022/12/27 10:18:24;;;;;;;1.55;0.60;;;8.00;99.90;;;;;;4909672;29;20051;-74
2022/12/27 10:21:11;;;;;;;1.08;0.45;;;8.00;99.90;;;;;;4903347;29;21062;-75
2022/12/27 10:23:42;;;;;;;0.65;0.30;;;8.00;99.90;;;;;;4908896;29;20666;-73
2022/12/27 10:26:14;;;;;;;0.65;0.30;;;7.90;99.90;;;;;;4905334;29;20039;-72
2022/12/27 10:28:46;;;;;;;2.38;0.50;;;7.80;99.90;;;;;;4897794;29;24649;-74
2022/12/27 10:31:17;;;;;;;0.77;0.40;;;7.80;99.90;;;;;;4910841;29;20166;-73
2022/12/27 10:33:43;;;;;;;0.40;0.35;;;7.70;99.90;;;;;;4909718;29;20043;-73
2022/12/27 10:36:19;;;;;;;0.50;0.50;;;7.70;99.90;;;;;;4911048;29;20142;-73
2022/12/27 10:38:45;;;;;;;0.63;0.40;;;7.70;99.90;;;;;;4911016;29;20067;-72
2022/12/27 10:41:55;;;;;;;0.75;0.20;;;7.70;99.90;;;;;;4908504;29;20591;-75
2022/12/27 10:44:22;;;;;;;0.70;0.45;;;7.80;99.90;;;;;;4901954;29;20143;-76
2022/12/27 10:46:53;;;;;;;0.63;0.50;;;7.90;99.90;;;;;;4901739;29;20150;-73
2022/12/27 10:49:26;;;;;;;2.20;0.73;;;7.90;99.90;;;;;;4908012;29;20146;-75
2022/12/27 10:51:55;;;;;;;0.55;0.50;;;8.00;99.90;;;;;;4900231;29;20042;-74
2022/12/27 10:54:24;;;;;;;0.40;0.40;;;8.10;99.90;;;;;;4902317;29;20051;-76
2022/12/27 10:56:50;;;;;;;1.15;0.85;;;8.00;99.90;;;;;;4901028;29;20126;-75
2022/12/27 10:59:25;;;;;;;1.20;0.77;;;7.80;99.90;;;;;;4909404;29;20107;-75
2022/12/27 11:02:18;;;;;;;0.82;0.30;;;7.80;99.90;;;;;;4913547;29;20044;-74
2022/12/27 11:05:00;;;;;;;0.43;0.30;;;7.70;99.90;;;;;;4901655;29;20046;-74
2022/12/27 11:07:33;;;;;;;2.40;0.28;;;7.70;99.90;;;;;;4896804;29;20231;-74
2022/12/27 11:10:16;;;;;;;0.35;0.30;;;7.70;99.90;;;;;;4903869;29;20051;-74
2022/12/27 11:13:03;;;;;;;0.65;0.50;;;7.60;99.90;;;;;;4901868;29;20042;-75
2022/12/27 11:15:35;;;;;;;0.45;0.30;;;7.80;99.90;;;;;;4909246;29;20038;-74
2022/12/27 11:18:09;;;;;;;0.50;0.50;;;7.80;99.90;;;;;;4898910;29;20126;-74
2022/12/27 11:20:43;;;;;;;2.92;0.82;;;7.70;99.90;;;;;;4908674;29;20048;-72
2022/12/27 11:23:09;;;;;;;1.27;0.45;;;7.80;99.90;;;;;;4907422;29;20070;-77
2022/12/27 11:25:45;;;;;;;1.30;1.20;;;7.80;99.90;;;;;;4903444;29;20433;-71
2022/12/27 11:28:21;;;;;;;1.88;1.70;;;7.80;99.90;;;;;;4900321;29;20032;-74
2022/12/27 11:30:56;;;;;;;1.35;0.70;;;7.90;99.90;;;;;;4903441;29;20039;-73
2022/12/27 11:33:48;;;;;;;1.63;0.73;;;8.00;99.90;;;;;;4906501;29;20040;-75
2022/12/27 11:36:33;;;;;;;0.88;0.30;;;7.90;99.90;;;;;;4907812;29;20043;-74
2022/12/27 11:39:00;;;;;;;1.95;0.47;;;7.60;99.90;;;;;;4906951;29;20039;-73
2022/12/27 11:41:32;;;;;;;0.75;0.30;;;7.50;99.90;;;;;;4905871;29;20047;-72
2022/12/27 11:44:11;;;;;;;1.67;0.70;;;7.50;99.90;;;;;;4892354;29;20056;-74
2022/12/27 11:46:48;;;;;;;1.73;0.63;;;7.60;99.90;;;;;;4896066;29;20119;-73
2022/12/27 11:49:30;;;;;;;0.70;0.50;;;7.60;99.90;;;;;;4906084;29;20044;-71
2022/12/27 11:51:59;;;;;;;0.75;0.50;;;7.70;99.90;;;;;;4901179;29;20044;-76
2022/12/27 11:54:54;;;;;;;0.32;0.32;;;7.70;99.90;;;;;;4909298;29;20064;-74
2022/12/27 11:57:47;;;;;;;2.03;0.63;;;7.60;99.90;;;;;;4912171;29;20051;-72
2022/12/27 12:00:25;;;;;;;1.50;0.52;;;7.70;99.90;;;;;;4910544;29;20408;-72
2022/12/27 12:03:29;;;;;;;0.90;0.52;;;7.60;99.90;;;;;;4898380;29;20146;-72
2022/12/27 12:06:28;;;;;;;0.80;0.80;;;7.60;99.90;;;;;;4915446;29;20934;-73
2022/12/27 12:09:20;;;;;;;1.02;0.50;;;7.50;99.90;;;;;;4909530;29;20405;-73
2022/12/27 12:12:17;;;;;;;1.38;0.80;;;7.50;99.90;;;;;;4895338;29;20103;-74
2022/12/27 12:15:01;;;;;;;1.80;0.68;;;7.60;99.90;;;;;;4915733;29;20048;-72
2022/12/27 12:17:29;;;;;;;0.55;0.50;;;7.50;99.90;;;;;;4912846;29;20560;-76
2022/12/27 12:20:01;;;;;;;1.83;0.68;;;7.50;99.90;;;;;;4907208;29;20067;-74
2022/12/27 12:23:04;;;;;;;2.25;0.75;;;7.50;99.90;;;;;;4912862;29;20544;-75
2022/12/27 12:25:54;;;;;;;0.50;0.50;;;7.40;99.90;;;;;;4911667;29;20039;-73
2022/12/27 12:28:50;;;;;;;1.50;0.68;;;7.40;99.90;;;;;;4912388;29;20047;-75
2022/12/27 12:31:54;;;;;;;0.95;0.57;;;7.40;99.90;;;;;;4906869;29;20131;-74
2022/12/27 12:34:32;;;;;;;0.52;0.52;;;7.40;99.90;;;;;;4911190;29;20055;-78
2022/12/27 12:37:31;;;;;;;0.98;0.52;;;7.40;99.90;;;;;;4905112;29;20043;-73
2022/12/27 12:40:23;;;;;;;0.57;0.57;;;7.30;99.90;;;;;;4915612;29;20054;-74
2022/12/27 12:43:13;;;;;;;1.45;0.50;;;7.20;99.90;;;;;;4905867;29;20049;-73
2022/12/27 12:45:59;;;;;;;1.42;0.43;;;7.20;99.90;;;;;;4914419;29;20040;-75
2022/12/27 12:48:34;;;;;;;1.98;0.70;;;7.20;99.90;;;;;;4907116;29;20063;-73
2022/12/27 12:51:10;;;;;;;1.23;0.80;;;7.30;99.90;;;;;;4917125;29;20040;-74
2022/12/27 12:54:13;;;;;;;0.68;0.40;;;7.30;99.90;;;;;;4911571;29;20549;-72
2022/12/27 12:57:00;;;;;;;1.50;0.80;;;7.40;99.90;;;;;;4902762;29;20052;-74
2022/12/27 12:59:37;;;;;;;4.25;0.50;;;7.30;99.90;;;;;;4905244;29;20059;-75
2022/12/27 13:02:37;;;;;;;0.70;0.40;;;7.20;99.90;;;;;;4905017;29;20059;-76
2022/12/27 13:05:33;;;;;;;0.82;0.30;;;7.30;99.90;;;;;;4905014;29;20040;-76
2022/12/27 13:08:28;;;;;;;0.55;0.55;;;7.30;99.90;;;;;;4901469;29;20047;-74
2022/12/27 13:11:03;;;;;;;2.42;0.70;;;7.40;99.90;;;;;;4872459;29;20592;-75
2022/12/27 13:13:51;;;;;;;0.95;0.38;;;7.30;99.90;;;;;;4899098;29;20058;-74
2022/12/27 13:17:00;;;;;;;1.27;0.57;;;7.40;99.90;;;;;;4911955;29;20032;-75
2022/12/27 13:19:26;;;;;;;4.97;0.80;;;7.40;99.90;;;;;;4846478;29;20045;-75
2022/12/27 13:22:12;;;;;;;3.25;0.40;;;7.30;99.90;;;;;;4852721;29;20049;-74
2022/12/27 13:25:04;;;;;;;2.05;1.10;;;7.50;99.90;;;;;;4882895;29;20063;-74
2022/12/27 13:27:55;;;;;;;3.13;1.30;;;7.60;99.90;;;;;;4899562;29;20043;-74
2022/12/27 13:30:40;;;;;;;0.88;0.65;;;7.70;99.90;;;;;;4905780;28;20036;-74
2022/12/27 13:33:11;;;;;;;0.75;0.60;;;7.80;99.90;;;;;;4916444;29;20047;-71
2022/12/27 13:35:40;;;;;;;1.17;0.65;;;8.10;99.90;;;;;;4902628;29;20158;-73
2022/12/27 13:38:30;;;;;;;1.15;0.50;;;8.40;99.90;;;;;;4915739;29;20027;-73
2022/12/27 13:41:37;;;;;;;1.52;1.00;;;8.60;99.90;;;;;;4910449;29;20039;-71
2022/12/27 13:44:24;;;;;;;1.33;0.57;;;8.60;99.90;;;;;;4870468;29;20155;-72
2022/12/27 13:47:01;;;;;;;1.50;0.82;;;8.70;99.90;;;;;;4868785;29;20040;-72
2022/12/27 13:50:11;;;;;;;1.73;0.88;;;8.90;99.90;;;;;;4878851;29;20069;-72
2022/12/27 13:52:50;;;;;;;1.63;0.95;;;9.20;99.40;;;;;;4907727;29;20733;-73
2022/12/27 13:55:31;;;;;;;1.65;0.63;;;9.60;98.80;;;;;;4913342;29;20036;-72
2022/12/27 13:58:05;;;;;;;1.80;1.02;;;10.10;97.20;;;;;;4910710;29;20055;-74
2022/12/27 14:00:39;;;;;;;1.45;0.60;;;10.80;97.20;;;;;;4912790;29;20043;-73
2022/12/27 14:03:21;;;;;;;4.10;0.77;;;11.00;95.10;;;;;;4919090;29;20055;-73
2022/12/27 14:05:52;;;;;;;4.40;2.20;;;10.50;94.50;;;;;;4914089;29;20047;-73
2022/12/27 14:08:45;;;;;;;1.20;0.87;;;9.90;95.50;;;;;;4913865;29;20047;-72
2022/12/27 14:11:40;;;;;;;1.55;0.63;;;9.70;96.20;;;;;;4914031;29;20591;-72
2022/12/27 14:14:09;;;;;;;1.15;0.57;;;9.20;97.70;;;;;;4909173;29;20119;-73
2022/12/27 14:16:50;;;;;;;0.80;0.40;;;8.90;97.10;;;;;;4912819;29;20028;-72
2022/12/27 14:19:25;;;;;;;0.47;0.47;;;8.50;98.40;;;;;;4917483;29;20040;-75
2022/12/27 14:22:18;;;;;;;0.95;0.55;;;8.00;98.10;;;;;;4914028;29;20056;-73
2022/12/27 14:25:25;;;;;;;0.50;0.38;;;7.70;98.80;;;;;;4913456;29;20035;-72
2022/12/27 14:28:34;;;;;;;1.33;0.50;;;7.30;99.90;;;;;;4912501;29;20587;-72
2022/12/27 14:31:22;;;;;;;0.70;0.40;;;7.30;99.90;;;;;;4863593;29;20052;-71
2022/12/27 14:34:18;;;;;;;0.85;0.60;;;7.30;99.90;;;;;;4869187;29;20045;-72
2022/12/27 14:37:04;;;;;;;2.95;0.77;;;7.20;99.90;;;;;;4905656;29;20999;-73
2022/12/27 14:39:33;;;;;;;0.68;0.40;;;7.10;99.90;;;;;;4919519;29;20036;-73
2022/12/27 14:42:32;;;;;;;1.80;0.52;;;7.00;99.90;;;;;;4912019;29;20215;-73
2022/12/27 14:45:20;;;;;;;1.95;0.70;;;6.80;99.90;;;;;;4907782;29;20035;-73
2022/12/27 14:48:23;;;;;;;1.13;0.63;;;6.60;99.90;;;;;;4912431;29;20055;-71
2022/12/27 14:51:25;;;;;;;2.42;0.63;;;6.50;99.90;;;;;;4907081;28;20319;-78
2022/12/27 14:54:12;;;;;;;1.35;0.30;;;6.30;99.90;;;;;;4913973;29;20071;-73
2022/12/27 14:57:01;;;;;;;1.38;0.93;;;6.20;99.90;;;;;;4914018;29;20055;-75
2022/12/27 14:59:59;;;;;;;2.55;0.65;;;6.20;99.90;;;;;;4907228;29;20043;-75
2022/12/27 15:02:47;;;;;;;1.83;0.55;;;6.20;99.90;;;;;;4895974;29;22954;-73
2022/12/27 15:05:40;;;;;;;1.20;0.50;;;6.20;99.90;;;;;;4908016;29;20043;-73
2022/12/27 15:08:43;;;;;;;0.88;0.32;;;6.20;99.90;;;;;;4906319;29;20039;-72